sensor_id;sensor_type;location;lat;lon;timestamp;temperature;humidity
7646;DHT22;3864;48.180;14.178;2023-12-04T00:00:54;-10.30;99.90
7646;DHT22;3864;48.180;14.178;2023-12-04T00:03:21;-10.30;99.90
7646;DHT22;3864;48.180;14.178;2023-12-04T00:05:48;-10.30;99.90
7646;DHT22;3864;48.180;14.178;2023-12-04T00:08:15;-10.20;99.90
7646;DHT22;3864;48.180;14.178;2023-12-04T00:10:42;-10.20;99.90
7646;DHT22;3864;48.180;14.178;2023-12-04T00:13:10;-10.10;99.90
7646;DHT22;3864;48.180;14.178;2023-12-04T00:15:38;-10.10;99.90
7646;DHT22;3864;48.180;14.178;2023-12-04T00:18:05;-10.00;99.90
7646;DHT22;3864;48.180;14.178;2023-12-04T00:20:32;-10.00;99.90
7646;DHT22;3864;48.180;14.178;2023-12-04T00:22:59;-10.10;99.90
7646;DHT22;3864;48.180;14.178;2023-12-04T00:25:26;-10.10;99.90
7646;DHT22;3864;48.180;14.178;2023-12-04T00:27:53;-10.10;99.90
7646;DHT22;3864;48.180;14.178;2023-12-04T00:30:22;-10.20;99.90
7646;DHT22;3864;48.180;14.178;2023-12-04T00:32:49;-10.10;99.90
7646;DHT22;3864;48.180;14.178;2023-12-04T00:35:16;-10.10;99.90
7646;DHT22;3864;48.180;14.178;2023-12-04T00:37:43;-10.20;99.90
7646;DHT22;3864;48.180;14.178;2023-12-04T00:40:10;-10.10;99.90
7646;DHT22;3864;48.180;14.178;2023-12-04T00:42:37;-10.10;99.90
7646;DHT22;3864;48.180;14.178;2023-12-04T00:45:05;-10.10;99.90
7646;DHT22;3864;48.180;14.178;2023-12-04T00:47:34;-10.10;99.90
7646;DHT22;3864;48.180;14.178;2023-12-04T00:50:01;-10.10;99.90
7646;DHT22;3864;48.180;14.178;2023-12-04T00:52:27;-10.10;99.90
7646;DHT22;3864;48.180;14.178;2023-12-04T00:54:54;-10.10;99.90
7646;DHT22;3864;48.180;14.178;2023-12-04T00:57:21;-10.10;99.90
7646;DHT22;3864;48.180;14.178;2023-12-04T00:59:48;-10.10;99.90
7646;DHT22;3864;48.180;14.178;2023-12-04T01:02:15;-10.10;99.90
7646;DHT22;3864;48.180;14.178;2023-12-04T01:04:44;-10.10;99.90
7646;DHT22;3864;48.180;14.178;2023-12-04T01:07:11;-10.10;99.90
7646;DHT22;3864;48.180;14.178;2023-12-04T01:09:38;-10.10;99.90
7646;DHT22;3864;48.180;14.178;2023-12-04T01:12:05;-10.10;99.90
7646;DHT22;3864;48.180;14.178;2023-12-04T01:14:32;-10.20;99.90
7646;DHT22;3864;48.180;14.178;2023-12-04T01:16:59;-10.20;99.90
7646;DHT22;3864;48.180;14.178;2023-12-04T01:19:26;-10.30;99.90
7646;DHT22;3864;48.180;14.178;2023-12-04T01:21:55;-10.30;99.90
7646;DHT22;3864;48.180;14.178;2023-12-04T01:24:22;-10.30;99.90
7646;DHT22;3864;48.180;14.178;2023-12-04T01:26:49;-10.30;99.90
7646;DHT22;3864;48.180;14.178;2023-12-04T01:29:16;-10.30;99.90
7646;DHT22;3864;48.180;14.178;2023-12-04T01:31:43;-10.30;99.90
7646;DHT22;3864;48.180;14.178;2023-12-04T01:34:10;-10.30;99.90
7646;DHT22;3864;48.180;14.178;2023-12-04T01:36:40;-10.40;99.90
7646;DHT22;3864;48.180;14.178;2023-12-04T01:39:08;-10.50;99.90
7646;DHT22;3864;48.180;14.178;2023-12-04T01:41:35;-10.60;99.90
7646;DHT22;3864;48.180;14.178;2023-12-04T01:44:02;-10.70;99.90
7646;DHT22;3864;48.180;14.178;2023-12-04T01:46:30;-10.80;99.90
7646;DHT22;3864;48.180;14.178;2023-12-04T01:48:57;-10.90;99.90
7646;DHT22;3864;48.180;14.178;2023-12-04T01:51:26;-11.00;99.90
7646;DHT22;3864;48.180;14.178;2023-12-04T01:53:54;-11.00;99.90
7646;DHT22;3864;48.180;14.178;2023-12-04T01:56:24;-11.10;99.90
7646;DHT22;3864;48.180;14.178;2023-12-04T01:58:51;-11.10;99.90
7646;DHT22;3864;48.180;14.178;2023-12-04T02:01:19;-11.10;99.90
7646;DHT22;3864;48.180;14.178;2023-12-04T02:03:47;-11.10;99.90
7646;DHT22;3864;48.180;14.178;2023-12-04T02:06:16;-11.30;99.90
7646;DHT22;3864;48.180;14.178;2023-12-04T02:08:46;-11.50;99.90
7646;DHT22;3864;48.180;14.178;2023-12-04T02:11:13;-11.70;99.90
7646;DHT22;3864;48.180;14.178;2023-12-04T02:13:42;-12.00;99.90
7646;DHT22;3864;48.180;14.178;2023-12-04T02:16:10;-12.10;99.90
7646;DHT22;3864;48.180;14.178;2023-12-04T02:18:39;-12.20;99.90
7646;DHT22;3864;48.180;14.178;2023-12-04T02:21:07;-12.30;99.90
7646;DHT22;3864;48.180;14.178;2023-12-04T02:23:34;-12.40;99.90
7646;DHT22;3864;48.180;14.178;2023-12-04T02:26:08;-12.40;99.90
7646;DHT22;3864;48.180;14.178;2023-12-04T02:28:37;-12.40;99.90
7646;DHT22;3864;48.180;14.178;2023-12-04T02:31:05;-12.50;99.90
7646;DHT22;3864;48.180;14.178;2023-12-04T02:33:34;-12.50;99.90
7646;DHT22;3864;48.180;14.178;2023-12-04T02:36:04;-12.60;99.90
7646;DHT22;3864;48.180;14.178;2023-12-04T02:38:32;-12.70;99.90
7646;DHT22;3864;48.180;14.178;2023-12-04T02:40:59;-12.80;99.90
7646;DHT22;3864;48.180;14.178;2023-12-04T02:43:28;-12.90;99.90
7646;DHT22;3864;48.180;14.178;2023-12-04T02:45:55;-13.00;99.90
7646;DHT22;3864;48.180;14.178;2023-12-04T02:48:22;-13.00;99.90
7646;DHT22;3864;48.180;14.178;2023-12-04T02:50:49;-13.10;99.90
7646;DHT22;3864;48.180;14.178;2023-12-04T02:53:16;-13.20;99.90
7646;DHT22;3864;48.180;14.178;2023-12-04T02:55:43;-13.30;99.90
7646;DHT22;3864;48.180;14.178;2023-12-04T02:58:10;-13.30;99.90
7646;DHT22;3864;48.180;14.178;2023-12-04T03:00:39;-13.30;99.90
7646;DHT22;3864;48.180;14.178;2023-12-04T03:03:06;-13.30;99.90
7646;DHT22;3864;48.180;14.178;2023-12-04T03:05:33;-13.30;99.90
7646;DHT22;3864;48.180;14.178;2023-12-04T03:08:00;-13.40;99.90
7646;DHT22;3864;48.180;14.178;2023-12-04T03:10:26;-13.50;99.90
7646;DHT22;3864;48.180;14.178;2023-12-04T03:12:53;-13.50;99.90
7646;DHT22;3864;48.180;14.178;2023-12-04T03:15:21;-13.60;99.90
7646;DHT22;3864;48.180;14.178;2023-12-04T03:17:49;-13.60;99.90
7646;DHT22;3864;48.180;14.178;2023-12-04T03:20:16;-13.70;99.90
7646;DHT22;3864;48.180;14.178;2023-12-04T03:22:43;-13.70;99.90
7646;DHT22;3864;48.180;14.178;2023-12-04T03:25:10;-13.60;99.90
7646;DHT22;3864;48.180;14.178;2023-12-04T03:27:37;-13.50;99.90
7646;DHT22;3864;48.180;14.178;2023-12-04T03:30:05;-13.60;99.90
7646;DHT22;3864;48.180;14.178;2023-12-04T03:32:32;-13.60;99.90
7646;DHT22;3864;48.180;14.178;2023-12-04T03:35:01;-13.60;99.90
7646;DHT22;3864;48.180;14.178;2023-12-04T03:37:28;-13.60;99.90
7646;DHT22;3864;48.180;14.178;2023-12-04T03:39:55;-13.60;99.90
7646;DHT22;3864;48.180;14.178;2023-12-04T03:42:22;-13.70;99.90
7646;DHT22;3864;48.180;14.178;2023-12-04T03:44:49;-13.60;99.90
7646;DHT22;3864;48.180;14.178;2023-12-04T03:47:16;-13.60;99.90
7646;DHT22;3864;48.180;14.178;2023-12-04T03:49:43;-13.60;99.90
7646;DHT22;3864;48.180;14.178;2023-12-04T03:52:11;-13.70;99.90
7646;DHT22;3864;48.180;14.178;2023-12-04T03:54:39;-13.70;99.90
7646;DHT22;3864;48.180;14.178;2023-12-04T03:57:06;-13.60;99.90
7646;DHT22;3864;48.180;14.178;2023-12-04T03:59:33;-13.60;99.90
7646;DHT22;3864;48.180;14.178;2023-12-04T04:02:00;-13.50;99.90
7646;DHT22;3864;48.180;14.178;2023-12-04T04:04:27;-13.50;99.90
7646;DHT22;3864;48.180;14.178;2023-12-04T04:06:54;-13.40;99.90
7646;DHT22;3864;48.180;14.178;2023-12-04T04:09:22;-13.30;99.90
7646;DHT22;3864;48.180;14.178;2023-12-04T04:11:49;-13.30;99.90
7646;DHT22;3864;48.180;14.178;2023-12-04T04:14:16;-13.20;99.90
7646;DHT22;3864;48.180;14.178;2023-12-04T04:16:43;-13.10;99.90
7646;DHT22;3864;48.180;14.178;2023-12-04T04:19:11;-12.90;99.90
7646;DHT22;3864;48.180;14.178;2023-12-04T04:21:39;-12.70;99.90
7646;DHT22;3864;48.180;14.178;2023-12-04T04:24:06;-12.60;99.90
7646;DHT22;3864;48.180;14.178;2023-12-04T04:26:35;-12.50;99.90
7646;DHT22;3864;48.180;14.178;2023-12-04T04:29:02;-12.50;99.90
7646;DHT22;3864;48.180;14.178;2023-12-04T04:31:29;-12.60;99.90
7646;DHT22;3864;48.180;14.178;2023-12-04T04:33:56;-12.60;99.90
7646;DHT22;3864;48.180;14.178;2023-12-04T04:36:23;-12.70;99.90
7646;DHT22;3864;48.180;14.178;2023-12-04T04:38:50;-12.70;99.90
7646;DHT22;3864;48.180;14.178;2023-12-04T04:41:17;-12.70;99.90
7646;DHT22;3864;48.180;14.178;2023-12-04T04:43:46;-12.70;99.90
7646;DHT22;3864;48.180;14.178;2023-12-04T04:46:13;-12.60;99.90
7646;DHT22;3864;48.180;14.178;2023-12-04T04:48:40;-12.50;99.90
7646;DHT22;3864;48.180;14.178;2023-12-04T04:51:07;-12.50;99.90
7646;DHT22;3864;48.180;14.178;2023-12-04T04:53:34;-12.40;99.90
7646;DHT22;3864;48.180;14.178;2023-12-04T04:56:01;-12.30;99.90
7646;DHT22;3864;48.180;14.178;2023-12-04T04:58:28;-12.20;99.90
7646;DHT22;3864;48.180;14.178;2023-12-04T05:00:57;-12.20;99.90
7646;DHT22;3864;48.180;14.178;2023-12-04T05:03:24;-12.20;99.90
7646;DHT22;3864;48.180;14.178;2023-12-04T05:05:51;-12.20;99.90
7646;DHT22;3864;48.180;14.178;2023-12-04T05:08:18;-12.30;99.90
7646;DHT22;3864;48.180;14.178;2023-12-04T05:10:45;-12.30;99.90
7646;DHT22;3864;48.180;14.178;2023-12-04T05:13:12;-12.30;99.90
7646;DHT22;3864;48.180;14.178;2023-12-04T05:15:39;-12.20;99.90
7646;DHT22;3864;48.180;14.178;2023-12-04T05:18:08;-12.20;99.90
7646;DHT22;3864;48.180;14.178;2023-12-04T05:20:36;-12.30;99.90
7646;DHT22;3864;48.180;14.178;2023-12-04T05:23:05;-12.40;99.90
7646;DHT22;3864;48.180;14.178;2023-12-04T05:25:32;-12.50;99.90
7646;DHT22;3864;48.180;14.178;2023-12-04T05:27:59;-12.60;99.90
7646;DHT22;3864;48.180;14.178;2023-12-04T05:30:26;-12.60;99.90
7646;DHT22;3864;48.180;14.178;2023-12-04T05:32:53;-12.60;99.90
7646;DHT22;3864;48.180;14.178;2023-12-04T05:35:22;-12.60;99.90
7646;DHT22;3864;48.180;14.178;2023-12-04T05:37:49;-12.60;99.90
7646;DHT22;3864;48.180;14.178;2023-12-04T05:40:16;-12.60;99.90
7646;DHT22;3864;48.180;14.178;2023-12-04T05:42:43;-12.70;99.90
7646;DHT22;3864;48.180;14.178;2023-12-04T05:45:10;-12.80;99.90
7646;DHT22;3864;48.180;14.178;2023-12-04T05:47:37;-12.80;99.90
7646;DHT22;3864;48.180;14.178;2023-12-04T05:50:04;-12.80;99.90
7646;DHT22;3864;48.180;14.178;2023-12-04T05:52:34;-12.80;99.90
7646;DHT22;3864;48.180;14.178;2023-12-04T05:55:01;-12.80;99.90
7646;DHT22;3864;48.180;14.178;2023-12-04T05:57:28;-12.80;99.90
7646;DHT22;3864;48.180;14.178;2023-12-04T05:59:55;-12.90;99.90
7646;DHT22;3864;48.180;14.178;2023-12-04T06:02:22;-13.00;99.90
7646;DHT22;3864;48.180;14.178;2023-12-04T06:04:49;-12.90;99.90
7646;DHT22;3864;48.180;14.178;2023-12-04T06:07:16;-12.90;99.90
7646;DHT22;3864;48.180;14.178;2023-12-04T06:09:44;-12.90;99.90
7646;DHT22;3864;48.180;14.178;2023-12-04T06:12:11;-12.90;99.90
7646;DHT22;3864;48.180;14.178;2023-12-04T06:14:38;-13.00;99.90
7646;DHT22;3864;48.180;14.178;2023-12-04T06:17:06;-13.00;99.90
7646;DHT22;3864;48.180;14.178;2023-12-04T06:19:33;-13.00;99.90
7646;DHT22;3864;48.180;14.178;2023-12-04T06:22:00;-12.90;99.90
7646;DHT22;3864;48.180;14.178;2023-12-04T06:24:27;-12.80;99.90
7646;DHT22;3864;48.180;14.178;2023-12-04T06:26:56;-12.60;99.90
7646;DHT22;3864;48.180;14.178;2023-12-04T06:29:24;-12.50;99.90
7646;DHT22;3864;48.180;14.178;2023-12-04T06:31:52;-12.50;99.90
7646;DHT22;3864;48.180;14.178;2023-12-04T06:34:19;-12.50;99.90
7646;DHT22;3864;48.180;14.178;2023-12-04T06:36:46;-12.50;99.90
7646;DHT22;3864;48.180;14.178;2023-12-04T06:39:15;-12.50;99.90
7646;DHT22;3864;48.180;14.178;2023-12-04T06:41:44;-12.50;99.90
7646;DHT22;3864;48.180;14.178;2023-12-04T06:44:14;-12.60;99.90
7646;DHT22;3864;48.180;14.178;2023-12-04T06:46:45;-12.50;99.90
7646;DHT22;3864;48.180;14.178;2023-12-04T06:49:17;-12.50;99.90
7646;DHT22;3864;48.180;14.178;2023-12-04T06:51:44;-12.50;99.90
7646;DHT22;3864;48.180;14.178;2023-12-04T06:54:11;-12.60;99.90
7646;DHT22;3864;48.180;14.178;2023-12-04T06:56:39;-12.60;99.90
7646;DHT22;3864;48.180;14.178;2023-12-04T06:59:06;-12.60;99.90
7646;DHT22;3864;48.180;14.178;2023-12-04T07:01:34;-12.70;99.90
7646;DHT22;3864;48.180;14.178;2023-12-04T07:04:01;-12.70;99.90
7646;DHT22;3864;48.180;14.178;2023-12-04T07:06:35;-12.80;99.90
7646;DHT22;3864;48.180;14.178;2023-12-04T07:09:02;-12.90;99.90
7646;DHT22;3864;48.180;14.178;2023-12-04T07:11:30;-12.90;99.90
7646;DHT22;3864;48.180;14.178;2023-12-04T07:13:57;-12.80;99.90
7646;DHT22;3864;48.180;14.178;2023-12-04T07:16:24;-12.70;99.90
7646;DHT22;3864;48.180;14.178;2023-12-04T07:18:53;-12.70;99.90
7646;DHT22;3864;48.180;14.178;2023-12-04T07:21:20;-12.60;99.90
7646;DHT22;3864;48.180;14.178;2023-12-04T07:23:47;-12.50;99.90
7646;DHT22;3864;48.180;14.178;2023-12-04T07:26:14;-12.50;99.90
7646;DHT22;3864;48.180;14.178;2023-12-04T07:28:41;-12.40;99.90
7646;DHT22;3864;48.180;14.178;2023-12-04T07:31:08;-12.30;99.90
7646;DHT22;3864;48.180;14.178;2023-12-04T07:33:35;-12.10;99.90
7646;DHT22;3864;48.180;14.178;2023-12-04T07:36:05;-12.00;99.90
7646;DHT22;3864;48.180;14.178;2023-12-04T07:38:32;-11.80;99.90
7646;DHT22;3864;48.180;14.178;2023-12-04T07:40:59;-11.80;99.90
7646;DHT22;3864;48.180;14.178;2023-12-04T07:43:27;-11.80;99.90
7646;DHT22;3864;48.180;14.178;2023-12-04T07:45:55;-11.80;99.90
7646;DHT22;3864;48.180;14.178;2023-12-04T07:48:23;-11.80;99.90
7646;DHT22;3864;48.180;14.178;2023-12-04T07:50:50;-11.70;99.90
7646;DHT22;3864;48.180;14.178;2023-12-04T07:53:18;-11.70;99.90
7646;DHT22;3864;48.180;14.178;2023-12-04T07:55:47;-11.80;99.90
7646;DHT22;3864;48.180;14.178;2023-12-04T07:58:16;-11.80;99.90
7646;DHT22;3864;48.180;14.178;2023-12-04T08:00:44;-11.80;99.90
7646;DHT22;3864;48.180;14.178;2023-12-04T08:03:11;-11.80;99.90
7646;DHT22;3864;48.180;14.178;2023-12-04T08:05:38;-11.70;99.90
7646;DHT22;3864;48.180;14.178;2023-12-04T08:08:05;-11.70;99.90
7646;DHT22;3864;48.180;14.178;2023-12-04T08:10:33;-11.90;99.90
7646;DHT22;3864;48.180;14.178;2023-12-04T08:13:00;-12.00;99.90
7646;DHT22;3864;48.180;14.178;2023-12-04T08:15:27;-11.90;99.90
7646;DHT22;3864;48.180;14.178;2023-12-04T08:17:54;-11.90;99.90
7646;DHT22;3864;48.180;14.178;2023-12-04T08:20:23;-12.00;99.90
7646;DHT22;3864;48.180;14.178;2023-12-04T08:22:50;-11.90;99.90
7646;DHT22;3864;48.180;14.178;2023-12-04T08:25:17;-11.90;99.90
7646;DHT22;3864;48.180;14.178;2023-12-04T08:27:46;-11.80;99.90
7646;DHT22;3864;48.180;14.178;2023-12-04T08:30:14;-11.70;99.90
7646;DHT22;3864;48.180;14.178;2023-12-04T08:32:41;-11.60;99.90
7646;DHT22;3864;48.180;14.178;2023-12-04T08:35:08;-11.50;99.90
7646;DHT22;3864;48.180;14.178;2023-12-04T08:37:35;-11.30;99.90
7646;DHT22;3864;48.180;14.178;2023-12-04T08:40:02;-11.20;99.90
7646;DHT22;3864;48.180;14.178;2023-12-04T08:42:29;-11.10;99.90
7646;DHT22;3864;48.180;14.178;2023-12-04T08:44:58;-11.00;99.90
7646;DHT22;3864;48.180;14.178;2023-12-04T08:47:25;-10.80;99.90
7646;DHT22;3864;48.180;14.178;2023-12-04T08:49:52;-10.60;99.90
7646;DHT22;3864;48.180;14.178;2023-12-04T08:52:19;-10.40;99.90
7646;DHT22;3864;48.180;14.178;2023-12-04T08:54:46;-10.20;99.90
7646;DHT22;3864;48.180;14.178;2023-12-04T08:57:13;-9.90;99.90
7646;DHT22;3864;48.180;14.178;2023-12-04T08:59:40;-9.70;99.90
7646;DHT22;3864;48.180;14.178;2023-12-04T09:02:09;-9.50;99.90
7646;DHT22;3864;48.180;14.178;2023-12-04T09:04:36;-9.60;99.90
7646;DHT22;3864;48.180;14.178;2023-12-04T09:07:03;-9.40;99.90
7646;DHT22;3864;48.180;14.178;2023-12-04T09:09:30;-9.20;99.90
7646;DHT22;3864;48.180;14.178;2023-12-04T09:11:58;-9.00;99.90
7646;DHT22;3864;48.180;14.178;2023-12-04T09:14:24;-9.00;99.90
7646;DHT22;3864;48.180;14.178;2023-12-04T09:16:53;-9.00;99.90
7646;DHT22;3864;48.180;14.178;2023-12-04T09:19:22;-8.90;99.90
7646;DHT22;3864;48.180;14.178;2023-12-04T09:21:49;-8.70;99.90
7646;DHT22;3864;48.180;14.178;2023-12-04T09:24:16;-8.30;99.90
7646;DHT22;3864;48.180;14.178;2023-12-04T09:26:43;-7.90;99.90
7646;DHT22;3864;48.180;14.178;2023-12-04T09:29:12;-7.50;99.90
7646;DHT22;3864;48.180;14.178;2023-12-04T09:31:45;-7.10;99.90
7646;DHT22;3864;48.180;14.178;2023-12-04T09:34:15;-6.80;99.90
7646;DHT22;3864;48.180;14.178;2023-12-04T09:36:45;-6.60;99.90
7646;DHT22;3864;48.180;14.178;2023-12-04T09:39:12;-6.30;99.90
7646;DHT22;3864;48.180;14.178;2023-12-04T09:41:40;-6.10;99.90
7646;DHT22;3864;48.180;14.178;2023-12-04T09:44:08;-5.80;99.90
7646;DHT22;3864;48.180;14.178;2023-12-04T09:46:35;-5.60;99.90
7646;DHT22;3864;48.180;14.178;2023-12-04T09:49:03;-5.50;99.90
7646;DHT22;3864;48.180;14.178;2023-12-04T09:51:31;-5.40;99.90
7646;DHT22;3864;48.180;14.178;2023-12-04T09:54:02;-5.60;99.90
7646;DHT22;3864;48.180;14.178;2023-12-04T09:56:32;-5.60;99.90
7646;DHT22;3864;48.180;14.178;2023-12-04T09:59:00;-5.70;99.90
7646;DHT22;3864;48.180;14.178;2023-12-04T10:01:29;-5.80;99.90
7646;DHT22;3864;48.180;14.178;2023-12-04T10:03:57;-5.70;99.90
7646;DHT22;3864;48.180;14.178;2023-12-04T10:06:27;-5.70;99.90
7646;DHT22;3864;48.180;14.178;2023-12-04T10:08:55;-5.80;99.90
7646;DHT22;3864;48.180;14.178;2023-12-04T10:11:25;-5.60;99.90
7646;DHT22;3864;48.180;14.178;2023-12-04T10:13:54;-5.40;99.90
7646;DHT22;3864;48.180;14.178;2023-12-04T10:16:32;-5.20;99.90
7646;DHT22;3864;48.180;14.178;2023-12-04T10:19:14;-5.10;99.90
7646;DHT22;3864;48.180;14.178;2023-12-04T10:21:42;-4.80;99.90
7646;DHT22;3864;48.180;14.178;2023-12-04T10:24:10;-4.50;99.90
7646;DHT22;3864;48.180;14.178;2023-12-04T10:26:38;-4.40;99.90
7646;DHT22;3864;48.180;14.178;2023-12-04T10:29:15;-4.50;99.90
7646;DHT22;3864;48.180;14.178;2023-12-04T10:31:42;-4.60;99.90
7646;DHT22;3864;48.180;14.178;2023-12-04T10:34:09;-4.50;99.90
7646;DHT22;3864;48.180;14.178;2023-12-04T10:36:37;-4.30;99.90
7646;DHT22;3864;48.180;14.178;2023-12-04T10:39:04;-4.50;99.90
7646;DHT22;3864;48.180;14.178;2023-12-04T10:41:32;-4.20;99.90
7646;DHT22;3864;48.180;14.178;2023-12-04T10:44:00;-3.80;99.90
7646;DHT22;3864;48.180;14.178;2023-12-04T10:46:28;-3.50;99.90
7646;DHT22;3864;48.180;14.178;2023-12-04T10:48:56;-3.10;99.90
7646;DHT22;3864;48.180;14.178;2023-12-04T10:51:25;-3.40;99.90
7646;DHT22;3864;48.180;14.178;2023-12-04T10:53:53;-3.80;99.90
7646;DHT22;3864;48.180;14.178;2023-12-04T10:56:35;-3.90;99.90
7646;DHT22;3864;48.180;14.178;2023-12-04T10:59:08;-3.60;99.90
7646;DHT22;3864;48.180;14.178;2023-12-04T11:01:36;-3.50;99.90
7646;DHT22;3864;48.180;14.178;2023-12-04T11:04:07;-3.00;99.90
7646;DHT22;3864;48.180;14.178;2023-12-04T11:06:39;-3.40;99.90
7646;DHT22;3864;48.180;14.178;2023-12-04T11:09:07;-3.30;99.90
7646;DHT22;3864;48.180;14.178;2023-12-04T11:11:36;-3.30;99.90
7646;DHT22;3864;48.180;14.178;2023-12-04T11:14:10;-3.00;99.90
7646;DHT22;3864;48.180;14.178;2023-12-04T11:16:46;-3.00;99.90
7646;DHT22;3864;48.180;14.178;2023-12-04T11:19:18;-2.90;99.90
7646;DHT22;3864;48.180;14.178;2023-12-04T11:21:45;-2.90;99.90
7646;DHT22;3864;48.180;14.178;2023-12-04T11:24:13;-3.00;99.90
7646;DHT22;3864;48.180;14.178;2023-12-04T11:26:40;-2.90;99.90
7646;DHT22;3864;48.180;14.178;2023-12-04T11:29:09;-3.00;99.90
7646;DHT22;3864;48.180;14.178;2023-12-04T11:31:38;-2.80;99.90
7646;DHT22;3864;48.180;14.178;2023-12-04T11:34:08;-2.50;99.90
7646;DHT22;3864;48.180;14.178;2023-12-04T11:36:36;-2.60;99.90
7646;DHT22;3864;48.180;14.178;2023-12-04T11:39:08;-2.60;99.90
7646;DHT22;3864;48.180;14.178;2023-12-04T11:41:37;-2.40;99.90
7646;DHT22;3864;48.180;14.178;2023-12-04T11:44:13;-2.10;99.90
7646;DHT22;3864;48.180;14.178;2023-12-04T11:46:55;-2.20;99.90
7646;DHT22;3864;48.180;14.178;2023-12-04T11:49:30;-2.30;99.90
7646;DHT22;3864;48.180;14.178;2023-12-04T11:51:57;-2.50;99.90
7646;DHT22;3864;48.180;14.178;2023-12-04T11:54:27;-2.60;99.90
7646;DHT22;3864;48.180;14.178;2023-12-04T11:57:20;-2.30;99.90
7646;DHT22;3864;48.180;14.178;2023-12-04T11:59:49;-2.00;99.90
7646;DHT22;3864;48.180;14.178;2023-12-04T12:02:17;-1.70;99.90
7646;DHT22;3864;48.180;14.178;2023-12-04T12:04:44;-1.50;99.90
7646;DHT22;3864;48.180;14.178;2023-12-04T12:07:11;-1.30;99.90
7646;DHT22;3864;48.180;14.178;2023-12-04T12:09:43;-1.10;99.90
7646;DHT22;3864;48.180;14.178;2023-12-04T12:12:10;-1.20;99.90
7646;DHT22;3864;48.180;14.178;2023-12-04T12:14:39;-0.90;99.90
7646;DHT22;3864;48.180;14.178;2023-12-04T12:17:08;-0.80;99.90
7646;DHT22;3864;48.180;14.178;2023-12-04T12:19:34;-1.00;99.90
7646;DHT22;3864;48.180;14.178;2023-12-04T12:22:04;-1.00;99.90
7646;DHT22;3864;48.180;14.178;2023-12-04T12:24:30;-1.30;99.90
7646;DHT22;3864;48.180;14.178;2023-12-04T12:26:57;-1.50;99.90
7646;DHT22;3864;48.180;14.178;2023-12-04T12:29:25;-2.40;99.90
7646;DHT22;3864;48.180;14.178;2023-12-04T12:31:53;-2.10;99.90
7646;DHT22;3864;48.180;14.178;2023-12-04T12:34:22;-1.80;99.90
7646;DHT22;3864;48.180;14.178;2023-12-04T12:36:49;-2.10;99.90
7646;DHT22;3864;48.180;14.178;2023-12-04T12:39:17;-2.50;99.90
7646;DHT22;3864;48.180;14.178;2023-12-04T12:41:47;-2.10;99.90
7646;DHT22;3864;48.180;14.178;2023-12-04T12:44:14;-1.90;99.90
7646;DHT22;3864;48.180;14.178;2023-12-04T12:46:41;-1.60;99.90
7646;DHT22;3864;48.180;14.178;2023-12-04T12:49:08;-1.40;99.90
7646;DHT22;3864;48.180;14.178;2023-12-04T12:51:37;-1.40;99.90
7646;DHT22;3864;48.180;14.178;2023-12-04T12:54:04;-1.30;99.90
7646;DHT22;3864;48.180;14.178;2023-12-04T12:56:31;-1.30;99.90
7646;DHT22;3864;48.180;14.178;2023-12-04T12:58:59;-1.60;99.90
7646;DHT22;3864;48.180;14.178;2023-12-04T13:01:30;-1.40;99.90
7646;DHT22;3864;48.180;14.178;2023-12-04T13:03:57;-1.20;99.90
7646;DHT22;3864;48.180;14.178;2023-12-04T13:06:24;-1.50;99.90
7646;DHT22;3864;48.180;14.178;2023-12-04T13:08:53;-1.90;99.90
7646;DHT22;3864;48.180;14.178;2023-12-04T13:11:21;-2.70;99.90
7646;DHT22;3864;48.180;14.178;2023-12-04T13:13:48;-3.60;99.90
7646;DHT22;3864;48.180;14.178;2023-12-04T13:16:15;-3.70;99.90
7646;DHT22;3864;48.180;14.178;2023-12-04T13:18:42;-3.70;99.90
7646;DHT22;3864;48.180;14.178;2023-12-04T13:21:10;-3.90;99.90
7646;DHT22;3864;48.180;14.178;2023-12-04T13:23:37;-3.90;99.90
7646;DHT22;3864;48.180;14.178;2023-12-04T13:26:06;-4.20;99.90
7646;DHT22;3864;48.180;14.178;2023-12-04T13:28:36;-4.20;99.90
7646;DHT22;3864;48.180;14.178;2023-12-04T13:31:04;-4.30;99.90
7646;DHT22;3864;48.180;14.178;2023-12-04T13:33:31;-4.30;99.90
7646;DHT22;3864;48.180;14.178;2023-12-04T13:35:58;-4.40;99.90
7646;DHT22;3864;48.180;14.178;2023-12-04T13:38:25;-4.40;99.90
7646;DHT22;3864;48.180;14.178;2023-12-04T13:40:52;-4.40;99.90
7646;DHT22;3864;48.180;14.178;2023-12-04T13:43:35;-4.30;99.90
7646;DHT22;3864;48.180;14.178;2023-12-04T13:46:16;-4.30;99.90
7646;DHT22;3864;48.180;14.178;2023-12-04T13:48:43;-4.30;99.90
7646;DHT22;3864;48.180;14.178;2023-12-04T13:51:11;-4.30;99.90
7646;DHT22;3864;48.180;14.178;2023-12-04T13:53:39;-4.30;99.90
7646;DHT22;3864;48.180;14.178;2023-12-04T13:56:10;-4.40;99.90
7646;DHT22;3864;48.180;14.178;2023-12-04T13:58:52;-4.50;99.90
7646;DHT22;3864;48.180;14.178;2023-12-04T14:01:23;-4.50;99.90
7646;DHT22;3864;48.180;14.178;2023-12-04T14:03:52;-4.50;99.90
7646;DHT22;3864;48.180;14.178;2023-12-04T14:06:19;-4.50;99.90
7646;DHT22;3864;48.180;14.178;2023-12-04T14:08:46;-4.60;99.90
7646;DHT22;3864;48.180;14.178;2023-12-04T14:11:13;-4.60;99.90
7646;DHT22;3864;48.180;14.178;2023-12-04T14:13:41;-4.70;99.90
7646;DHT22;3864;48.180;14.178;2023-12-04T14:16:10;-4.80;99.90
7646;DHT22;3864;48.180;14.178;2023-12-04T14:18:37;-4.80;99.90
7646;DHT22;3864;48.180;14.178;2023-12-04T14:21:05;-5.00;99.90
7646;DHT22;3864;48.180;14.178;2023-12-04T14:23:32;-5.10;99.90
7646;DHT22;3864;48.180;14.178;2023-12-04T14:25:59;-5.20;99.90
7646;DHT22;3864;48.180;14.178;2023-12-04T14:28:28;-5.20;99.90
7646;DHT22;3864;48.180;14.178;2023-12-04T14:30:55;-5.20;99.90
7646;DHT22;3864;48.180;14.178;2023-12-04T14:33:24;-5.20;99.90
7646;DHT22;3864;48.180;14.178;2023-12-04T14:35:50;-5.20;99.90
7646;DHT22;3864;48.180;14.178;2023-12-04T14:38:18;-5.20;99.90
7646;DHT22;3864;48.180;14.178;2023-12-04T14:40:45;-5.20;99.90
7646;DHT22;3864;48.180;14.178;2023-12-04T14:43:12;-5.20;99.90
7646;DHT22;3864;48.180;14.178;2023-12-04T14:45:39;-5.10;99.90
7646;DHT22;3864;48.180;14.178;2023-12-04T14:48:07;-5.10;99.90
7646;DHT22;3864;48.180;14.178;2023-12-04T14:50:36;-5.10;99.90
7646;DHT22;3864;48.180;14.178;2023-12-04T14:53:04;-5.10;99.90
7646;DHT22;3864;48.180;14.178;2023-12-04T14:55:42;-5.10;99.90
7646;DHT22;3864;48.180;14.178;2023-12-04T14:58:27;-5.20;99.90
7646;DHT22;3864;48.180;14.178;2023-12-04T15:01:16;-5.30;99.90
7646;DHT22;3864;48.180;14.178;2023-12-04T15:04:03;-5.40;99.90
7646;DHT22;3864;48.180;14.178;2023-12-04T15:06:57;-5.50;99.90
7646;DHT22;3864;48.180;14.178;2023-12-04T15:09:59;-5.60;99.90
7646;DHT22;3864;48.180;14.178;2023-12-04T15:12:51;-5.80;99.90
7646;DHT22;3864;48.180;14.178;2023-12-04T15:15:52;-6.00;99.90
7646;DHT22;3864;48.180;14.178;2023-12-04T15:18:37;-6.20;99.90
7646;DHT22;3864;48.180;14.178;2023-12-04T15:21:12;-6.40;99.90
7646;DHT22;3864;48.180;14.178;2023-12-04T15:23:43;-6.60;99.90
7646;DHT22;3864;48.180;14.178;2023-12-04T15:26:10;-6.70;99.90
7646;DHT22;3864;48.180;14.178;2023-12-04T15:28:36;-6.70;99.90
7646;DHT22;3864;48.180;14.178;2023-12-04T15:31:04;-6.80;99.90
7646;DHT22;3864;48.180;14.178;2023-12-04T15:33:30;-6.80;99.90
7646;DHT22;3864;48.180;14.178;2023-12-04T15:35:57;-6.90;99.90
7646;DHT22;3864;48.180;14.178;2023-12-04T15:38:23;-6.80;99.90
7646;DHT22;3864;48.180;14.178;2023-12-04T15:40:52;-6.80;99.90
7646;DHT22;3864;48.180;14.178;2023-12-04T15:43:18;-6.80;99.90
7646;DHT22;3864;48.180;14.178;2023-12-04T15:45:45;-6.90;99.90